sensor_id;sensor_type;location;lat;lon;timestamp;P1;durP1;ratioP1;P2;durP2;ratioP2
42702;SDS011;28341;52.064;4.920;2023-11-19T00:01:44;34.85;;;6.38;;
42702;SDS011;28341;52.064;4.920;2023-11-19T00:03:49;36.47;;;5.60;;
42702;SDS011;28341;52.064;4.920;2023-11-19T00:05:51;26.23;;;5.43;;
42702;SDS011;28341;52.064;4.920;2023-11-19T00:07:58;34.60;;;5.95;;
42702;SDS011;28341;52.064;4.920;2023-11-19T00:10:00;32.50;;;6.20;;
42702;SDS011;28341;52.064;4.920;2023-11-19T00:12:10;39.88;;;7.10;;
42702;SDS011;28341;52.064;4.920;2023-11-19T00:14:15;35.55;;;6.28;;
42702;SDS011;28341;52.064;4.920;2023-11-19T00:16:17;38.83;;;5.97;;
42702;SDS011;28341;52.064;4.920;2023-11-19T00:18:21;34.35;;;6.80;;
42702;SDS011;28341;52.064;4.920;2023-11-19T00:20:26;43.53;;;6.65;;
42702;SDS011;28341;52.064;4.920;2023-11-19T00:22:27;33.85;;;6.30;;
42702;SDS011;28341;52.064;4.920;2023-11-19T00:24:34;43.10;;;7.20;;
42702;SDS011;28341;52.064;4.920;2023-11-19T00:26:39;39.97;;;7.30;;
42702;SDS011;28341;52.064;4.920;2023-11-19T00:28:43;43.80;;;7.10;;
42702;SDS011;28341;52.064;4.920;2023-11-19T00:30:48;45.65;;;7.90;;
42702;SDS011;28341;52.064;4.920;2023-11-19T00:32:54;57.05;;;7.88;;
42702;SDS011;28341;52.064;4.920;2023-11-19T00:34:56;49.03;;;7.03;;
42702;SDS011;28341;52.064;4.920;2023-11-19T00:37:00;48.45;;;8.13;;
42702;SDS011;28341;52.064;4.920;2023-11-19T00:39:05;38.22;;;7.05;;
42702;SDS011;28341;52.064;4.920;2023-11-19T00:41:11;48.13;;;7.32;;
42702;SDS011;28341;52.064;4.920;2023-11-19T00:43:16;45.13;;;7.38;;
42702;SDS011;28341;52.064;4.920;2023-11-19T00:45:22;43.95;;;7.63;;
42702;SDS011;28341;52.064;4.920;2023-11-19T00:47:27;50.60;;;6.90;;
42702;SDS011;28341;52.064;4.920;2023-11-19T00:49:32;44.83;;;7.38;;
42702;SDS011;28341;52.064;4.920;2023-11-19T00:51:33;41.03;;;8.02;;
42702;SDS011;28341;52.064;4.920;2023-11-19T00:53:38;47.17;;;7.78;;
42702;SDS011;28341;52.064;4.920;2023-11-19T00:55:42;47.22;;;7.65;;
42702;SDS011;28341;52.064;4.920;2023-11-19T00:57:49;56.60;;;8.32;;
42702;SDS011;28341;52.064;4.920;2023-11-19T00:59:54;47.25;;;8.05;;
42702;SDS011;28341;52.064;4.920;2023-11-19T01:01:58;46.85;;;7.53;;
42702;SDS011;28341;52.064;4.920;2023-11-19T01:04:05;41.50;;;8.27;;
42702;SDS011;28341;52.064;4.920;2023-11-19T01:06:10;54.58;;;8.02;;
42702;SDS011;28341;52.064;4.920;2023-11-19T01:08:15;58.10;;;9.55;;
42702;SDS011;28341;52.064;4.920;2023-11-19T01:10:20;51.60;;;8.80;;
42702;SDS011;28341;52.064;4.920;2023-11-19T01:12:24;52.08;;;8.20;;
42702;SDS011;28341;52.064;4.920;2023-11-19T01:14:31;51.20;;;9.13;;
42702;SDS011;28341;52.064;4.920;2023-11-19T01:16:36;50.03;;;8.07;;
42702;SDS011;28341;52.064;4.920;2023-11-19T01:18:40;43.33;;;8.45;;
42702;SDS011;28341;52.064;4.920;2023-11-19T01:20:42;57.47;;;9.65;;
42702;SDS011;28341;52.064;4.920;2023-11-19T01:22:47;54.72;;;9.07;;
42702;SDS011;28341;52.064;4.920;2023-11-19T01:24:52;50.53;;;8.35;;
42702;SDS011;28341;52.064;4.920;2023-11-19T01:26:56;57.67;;;9.00;;
42702;SDS011;28341;52.064;4.920;2023-11-19T01:29:01;60.83;;;9.30;;
42702;SDS011;28341;52.064;4.920;2023-11-19T01:31:07;58.92;;;9.43;;
42702;SDS011;28341;52.064;4.920;2023-11-19T01:33:10;58.35;;;9.07;;
42702;SDS011;28341;52.064;4.920;2023-11-19T01:35:14;66.50;;;11.02;;
42702;SDS011;28341;52.064;4.920;2023-11-19T01:37:19;53.35;;;9.18;;
42702;SDS011;28341;52.064;4.920;2023-11-19T01:39:23;62.45;;;10.40;;
42702;SDS011;28341;52.064;4.920;2023-11-19T01:41:28;62.78;;;9.40;;
42702;SDS011;28341;52.064;4.920;2023-11-19T01:43:32;62.15;;;9.68;;
42702;SDS011;28341;52.064;4.920;2023-11-19T01:45:37;55.83;;;9.48;;
42702;SDS011;28341;52.064;4.920;2023-11-19T01:47:45;58.22;;;9.40;;
42702;SDS011;28341;52.064;4.920;2023-11-19T01:49:49;60.42;;;9.13;;
42702;SDS011;28341;52.064;4.920;2023-11-19T01:51:54;54.92;;;9.27;;
42702;SDS011;28341;52.064;4.920;2023-11-19T01:53:58;65.38;;;10.20;;
42702;SDS011;28341;52.064;4.920;2023-11-19T01:56:03;56.13;;;9.13;;
42702;SDS011;28341;52.064;4.920;2023-11-19T01:58:09;67.93;;;10.60;;
42702;SDS011;28341;52.064;4.920;2023-11-19T02:00:13;54.33;;;9.70;;
42702;SDS011;28341;52.064;4.920;2023-11-19T02:02:19;54.65;;;9.13;;
42702;SDS011;28341;52.064;4.920;2023-11-19T02:04:26;59.40;;;9.77;;
42702;SDS011;28341;52.064;4.920;2023-11-19T02:06:31;62.20;;;9.55;;
42702;SDS011;28341;52.064;4.920;2023-11-19T02:08:33;63.08;;;9.43;;
42702;SDS011;28341;52.064;4.920;2023-11-19T02:10:38;60.80;;;10.23;;
42702;SDS011;28341;52.064;4.920;2023-11-19T02:12:43;61.75;;;10.57;;
42702;SDS011;28341;52.064;4.920;2023-11-19T02:14:45;59.05;;;10.48;;
42702;SDS011;28341;52.064;4.920;2023-11-19T02:16:49;51.22;;;8.88;;
42702;SDS011;28341;52.064;4.920;2023-11-19T02:18:51;63.00;;;9.07;;
42702;SDS011;28341;52.064;4.920;2023-11-19T02:20:58;62.63;;;10.27;;
42702;SDS011;28341;52.064;4.920;2023-11-19T02:23:03;60.42;;;9.88;;
42702;SDS011;28341;52.064;4.920;2023-11-19T02:25:06;65.97;;;11.48;;
42702;SDS011;28341;52.064;4.920;2023-11-19T02:27:14;70.88;;;10.38;;
42702;SDS011;28341;52.064;4.920;2023-11-19T02:29:27;62.33;;;9.63;;
42702;SDS011;28341;52.064;4.920;2023-11-19T02:31:32;66.57;;;10.38;;
42702;SDS011;28341;52.064;4.920;2023-11-19T02:33:37;64.30;;;11.75;;
42702;SDS011;28341;52.064;4.920;2023-11-19T02:35:42;63.95;;;10.25;;
42702;SDS011;28341;52.064;4.920;2023-11-19T02:37:46;68.13;;;10.07;;
42702;SDS011;28341;52.064;4.920;2023-11-19T02:39:48;67.90;;;11.30;;
42702;SDS011;28341;52.064;4.920;2023-11-19T02:41:52;67.80;;;10.35;;
42702;SDS011;28341;52.064;4.920;2023-11-19T02:43:56;70.90;;;10.48;;
42702;SDS011;28341;52.064;4.920;2023-11-19T02:46:02;72.13;;;10.65;;
42702;SDS011;28341;52.064;4.920;2023-11-19T02:48:09;72.75;;;11.43;;
42702;SDS011;28341;52.064;4.920;2023-11-19T02:50:11;73.78;;;10.80;;
42702;SDS011;28341;52.064;4.920;2023-11-19T02:52:16;61.50;;;10.52;;
42702;SDS011;28341;52.064;4.920;2023-11-19T02:54:19;64.18;;;9.57;;
42702;SDS011;28341;52.064;4.920;2023-11-19T02:56:27;56.35;;;10.80;;
42702;SDS011;28341;52.064;4.920;2023-11-19T02:58:35;71.60;;;11.80;;
42702;SDS011;28341;52.064;4.920;2023-11-19T03:00:40;70.72;;;11.05;;
42702;SDS011;28341;52.064;4.920;2023-11-19T03:02:55;69.05;;;11.30;;
42702;SDS011;28341;52.064;4.920;2023-11-19T03:05:10;67.78;;;9.57;;
42702;SDS011;28341;52.064;4.920;2023-11-19T03:07:15;75.05;;;10.63;;
42702;SDS011;28341;52.064;4.920;2023-11-19T03:11:22;56.50;;;10.52;;
42702;SDS011;28341;52.064;4.920;2023-11-19T03:13:26;66.85;;;11.52;;
42702;SDS011;28341;52.064;4.920;2023-11-19T03:15:31;70.15;;;10.73;;
42702;SDS011;28341;52.064;4.920;2023-11-19T03:17:35;72.53;;;10.13;;
42702;SDS011;28341;52.064;4.920;2023-11-19T03:19:40;62.10;;;11.20;;
42702;SDS011;28341;52.064;4.920;2023-11-19T03:21:44;70.28;;;10.52;;
42702;SDS011;28341;52.064;4.920;2023-11-19T03:23:48;67.30;;;11.90;;
42702;SDS011;28341;52.064;4.920;2023-11-19T03:25:53;63.80;;;10.60;;
42702;SDS011;28341;52.064;4.920;2023-11-19T03:27:58;71.18;;;11.18;;
42702;SDS011;28341;52.064;4.920;2023-11-19T03:30:04;75.53;;;10.88;;
42702;SDS011;28341;52.064;4.920;2023-11-19T03:32:10;62.28;;;10.70;;
42702;SDS011;28341;52.064;4.920;2023-11-19T03:34:15;61.50;;;9.40;;
42702;SDS011;28341;52.064;4.920;2023-11-19T03:36:22;70.55;;;12.25;;
42702;SDS011;28341;52.064;4.920;2023-11-19T03:38:27;71.97;;;10.93;;
42702;SDS011;28341;52.064;4.920;2023-11-19T03:40:31;64.45;;;9.38;;
42702;SDS011;28341;52.064;4.920;2023-11-19T03:42:36;73.72;;;11.75;;
42702;SDS011;28341;52.064;4.920;2023-11-19T03:44:40;72.78;;;11.45;;
42702;SDS011;28341;52.064;4.920;2023-11-19T03:46:45;57.00;;;10.40;;
42702;SDS011;28341;52.064;4.920;2023-11-19T03:48:50;72.05;;;11.48;;
42702;SDS011;28341;52.064;4.920;2023-11-19T03:50:54;74.97;;;11.60;;
42702;SDS011;28341;52.064;4.920;2023-11-19T03:53:01;64.00;;;10.93;;
42702;SDS011;28341;52.064;4.920;2023-11-19T03:55:06;67.55;;;10.23;;
42702;SDS011;28341;52.064;4.920;2023-11-19T03:57:12;64.13;;;10.40;;
42702;SDS011;28341;52.064;4.920;2023-11-19T03:59:16;64.57;;;9.75;;
42702;SDS011;28341;52.064;4.920;2023-11-19T04:01:20;73.32;;;10.27;;
42702;SDS011;28341;52.064;4.920;2023-11-19T04:03:26;64.10;;;10.30;;
42702;SDS011;28341;52.064;4.920;2023-11-19T04:05:30;75.28;;;11.05;;
42702;SDS011;28341;52.064;4.920;2023-11-19T04:07:35;72.18;;;11.18;;
42702;SDS011;28341;52.064;4.920;2023-11-19T04:09:40;70.70;;;11.73;;
42702;SDS011;28341;52.064;4.920;2023-11-19T04:11:45;73.40;;;12.18;;
42702;SDS011;28341;52.064;4.920;2023-11-19T04:13:49;75.15;;;12.35;;
42702;SDS011;28341;52.064;4.920;2023-11-19T04:15:51;79.00;;;12.02;;
42702;SDS011;28341;52.064;4.920;2023-11-19T04:17:55;80.40;;;11.93;;
42702;SDS011;28341;52.064;4.920;2023-11-19T04:20:00;72.22;;;12.70;;
42702;SDS011;28341;52.064;4.920;2023-11-19T04:22:04;76.68;;;11.07;;
42702;SDS011;28341;52.064;4.920;2023-11-19T04:24:09;68.57;;;10.23;;
42702;SDS011;28341;52.064;4.920;2023-11-19T04:26:17;70.68;;;11.70;;
42702;SDS011;28341;52.064;4.920;2023-11-19T04:28:21;79.38;;;11.63;;
42702;SDS011;28341;52.064;4.920;2023-11-19T04:30:27;79.13;;;11.68;;
42702;SDS011;28341;52.064;4.920;2023-11-19T04:32:32;66.55;;;10.55;;
42702;SDS011;28341;52.064;4.920;2023-11-19T04:34:36;63.30;;;11.10;;
42702;SDS011;28341;52.064;4.920;2023-11-19T04:36:38;71.07;;;11.88;;
42702;SDS011;28341;52.064;4.920;2023-11-19T04:38:42;68.38;;;10.65;;
42702;SDS011;28341;52.064;4.920;2023-11-19T04:40:46;71.22;;;11.20;;
42702;SDS011;28341;52.064;4.920;2023-11-19T04:42:53;81.47;;;11.38;;
42702;SDS011;28341;52.064;4.920;2023-11-19T04:44:58;64.53;;;10.32;;
42702;SDS011;28341;52.064;4.920;2023-11-19T04:47:02;66.28;;;10.30;;
42702;SDS011;28341;52.064;4.920;2023-11-19T04:49:07;61.92;;;9.57;;
42702;SDS011;28341;52.064;4.920;2023-11-19T04:51:12;72.30;;;10.60;;
42702;SDS011;28341;52.064;4.920;2023-11-19T04:53:17;74.97;;;11.98;;
42702;SDS011;28341;52.064;4.920;2023-11-19T04:55:21;71.05;;;11.05;;
42702;SDS011;28341;52.064;4.920;2023-11-19T04:57:26;69.80;;;9.50;;
42702;SDS011;28341;52.064;4.920;2023-11-19T04:59:34;64.32;;;10.05;;
42702;SDS011;28341;52.064;4.920;2023-11-19T05:01:38;64.53;;;10.15;;
42702;SDS011;28341;52.064;4.920;2023-11-19T05:03:43;64.10;;;10.43;;
42702;SDS011;28341;52.064;4.920;2023-11-19T05:05:47;66.13;;;11.05;;
42702;SDS011;28341;52.064;4.920;2023-11-19T05:07:49;63.10;;;9.65;;
42702;SDS011;28341;52.064;4.920;2023-11-19T05:09:53;65.82;;;10.57;;
42702;SDS011;28341;52.064;4.920;2023-11-19T05:11:58;64.28;;;10.05;;
42702;SDS011;28341;52.064;4.920;2023-11-19T05:14:03;65.82;;;9.80;;
42702;SDS011;28341;52.064;4.920;2023-11-19T05:16:10;75.57;;;10.63;;
42702;SDS011;28341;52.064;4.920;2023-11-19T05:18:15;67.35;;;10.00;;
42702;SDS011;28341;52.064;4.920;2023-11-19T05:20:20;61.53;;;9.88;;
42702;SDS011;28341;52.064;4.920;2023-11-19T05:22:24;66.70;;;10.90;;
42702;SDS011;28341;52.064;4.920;2023-11-19T05:24:28;68.25;;;10.60;;
42702;SDS011;28341;52.064;4.920;2023-11-19T05:26:34;83.20;;;11.32;;
42702;SDS011;28341;52.064;4.920;2023-11-19T05:28:38;73.22;;;11.48;;
42702;SDS011;28341;52.064;4.920;2023-11-19T05:30:43;69.93;;;9.85;;
42702;SDS011;28341;52.064;4.920;2023-11-19T05:32:47;63.42;;;10.63;;
42702;SDS011;28341;52.064;4.920;2023-11-19T05:34:52;59.13;;;8.45;;
42702;SDS011;28341;52.064;4.920;2023-11-19T05:36:56;76.45;;;10.98;;
42702;SDS011;28341;52.064;4.920;2023-11-19T05:39:01;85.75;;;11.90;;
42702;SDS011;28341;52.064;4.920;2023-11-19T05:41:06;67.32;;;11.75;;
42702;SDS011;28341;52.064;4.920;2023-11-19T05:43:07;75.43;;;12.80;;
42702;SDS011;28341;52.064;4.920;2023-11-19T05:45:12;71.50;;;10.63;;
42702;SDS011;28341;52.064;4.920;2023-11-19T05:47:14;70.05;;;11.52;;
42702;SDS011;28341;52.064;4.920;2023-11-19T05:49:21;72.60;;;11.60;;
42702;SDS011;28341;52.064;4.920;2023-11-19T05:51:25;60.70;;;9.77;;
42702;SDS011;28341;52.064;4.920;2023-11-19T05:53:30;68.93;;;11.45;;
42702;SDS011;28341;52.064;4.920;2023-11-19T05:55:34;78.38;;;10.70;;
42702;SDS011;28341;52.064;4.920;2023-11-19T05:57:45;67.18;;;10.85;;
42702;SDS011;28341;52.064;4.920;2023-11-19T05:59:51;69.93;;;10.35;;
42702;SDS011;28341;52.064;4.920;2023-11-19T06:01:57;69.25;;;11.57;;
42702;SDS011;28341;52.064;4.920;2023-11-19T06:04:01;70.25;;;11.52;;
42702;SDS011;28341;52.064;4.920;2023-11-19T06:06:09;66.60;;;9.25;;
42702;SDS011;28341;52.064;4.920;2023-11-19T06:08:14;67.18;;;11.23;;
42702;SDS011;28341;52.064;4.920;2023-11-19T06:10:21;69.25;;;10.63;;
42702;SDS011;28341;52.064;4.920;2023-11-19T06:12:29;70.70;;;10.50;;
42702;SDS011;28341;52.064;4.920;2023-11-19T06:14:34;60.50;;;9.65;;
42702;SDS011;28341;52.064;4.920;2023-11-19T06:16:38;70.60;;;11.45;;
42702;SDS011;28341;52.064;4.920;2023-11-19T06:18:43;66.07;;;9.23;;
42702;SDS011;28341;52.064;4.920;2023-11-19T06:20:47;64.30;;;10.48;;
42702;SDS011;28341;52.064;4.920;2023-11-19T06:22:54;65.38;;;9.98;;
42702;SDS011;28341;52.064;4.920;2023-11-19T06:24:59;71.13;;;11.52;;
42702;SDS011;28341;52.064;4.920;2023-11-19T06:27:07;62.08;;;10.57;;
42702;SDS011;28341;52.064;4.920;2023-11-19T06:29:12;63.10;;;10.65;;
42702;SDS011;28341;52.064;4.920;2023-11-19T06:31:19;73.30;;;11.02;;
42702;SDS011;28341;52.064;4.920;2023-11-19T06:33:24;65.30;;;10.55;;
42702;SDS011;28341;52.064;4.920;2023-11-19T06:35:28;64.22;;;10.60;;
42702;SDS011;28341;52.064;4.920;2023-11-19T06:37:38;69.65;;;10.38;;
42702;SDS011;28341;52.064;4.920;2023-11-19T06:39:45;65.07;;;9.88;;
42702;SDS011;28341;52.064;4.920;2023-11-19T06:41:49;69.50;;;10.40;;
42702;SDS011;28341;52.064;4.920;2023-11-19T06:43:55;61.92;;;9.80;;
42702;SDS011;28341;52.064;4.920;2023-11-19T06:46:00;61.38;;;9.90;;
42702;SDS011;28341;52.064;4.920;2023-11-19T06:48:06;66.60;;;10.13;;
42702;SDS011;28341;52.064;4.920;2023-11-19T06:50:10;62.15;;;9.43;;
42702;SDS011;28341;52.064;4.920;2023-11-19T06:52:12;66.20;;;9.90;;
42702;SDS011;28341;52.064;4.920;2023-11-19T06:54:17;60.53;;;10.00;;
42702;SDS011;28341;52.064;4.920;2023-11-19T06:56:24;64.93;;;9.15;;
42702;SDS011;28341;52.064;4.920;2023-11-19T06:58:28;70.53;;;11.38;;
42702;SDS011;28341;52.064;4.920;2023-11-19T07:00:30;63.88;;;9.70;;
42702;SDS011;28341;52.064;4.920;2023-11-19T07:02:36;68.72;;;10.45;;
42702;SDS011;28341;52.064;4.920;2023-11-19T07:04:40;54.47;;;9.55;;
42702;SDS011;28341;52.064;4.920;2023-11-19T07:06:45;66.93;;;10.52;;
42702;SDS011;28341;52.064;4.920;2023-11-19T07:08:49;65.65;;;10.07;;
42702;SDS011;28341;52.064;4.920;2023-11-19T07:10:54;54.72;;;10.82;;
42702;SDS011;28341;52.064;4.920;2023-11-19T07:13:01;71.50;;;11.27;;
42702;SDS011;28341;52.064;4.920;2023-11-19T07:15:06;58.38;;;9.65;;
42702;SDS011;28341;52.064;4.920;2023-11-19T07:17:12;54.95;;;9.48;;
42702;SDS011;28341;52.064;4.920;2023-11-19T07:19:18;68.50;;;10.57;;
42702;SDS011;28341;52.064;4.920;2023-11-19T07:21:22;59.83;;;10.32;;
42702;SDS011;28341;52.064;4.920;2023-11-19T07:23:24;68.13;;;10.43;;
42702;SDS011;28341;52.064;4.920;2023-11-19T07:25:28;60.13;;;10.02;;
42702;SDS011;28341;52.064;4.920;2023-11-19T07:27:32;55.20;;;11.20;;
42702;SDS011;28341;52.064;4.920;2023-11-19T07:29:39;61.90;;;10.32;;
42702;SDS011;28341;52.064;4.920;2023-11-19T07:31:43;60.05;;;8.93;;
42702;SDS011;28341;52.064;4.920;2023-11-19T07:33:48;80.80;;;10.23;;
42702;SDS011;28341;52.064;4.920;2023-11-19T07:35:52;67.10;;;9.82;;
42702;SDS011;28341;52.064;4.920;2023-11-19T07:37:54;68.78;;;11.70;;
42702;SDS011;28341;52.064;4.920;2023-11-19T07:39:58;57.20;;;9.82;;
42702;SDS011;28341;52.064;4.920;2023-11-19T07:42:03;64.38;;;9.65;;
42702;SDS011;28341;52.064;4.920;2023-11-19T07:44:05;50.40;;;9.77;;
42702;SDS011;28341;52.064;4.920;2023-11-19T07:46:13;57.25;;;9.07;;
42702;SDS011;28341;52.064;4.920;2023-11-19T07:48:19;66.97;;;11.02;;
42702;SDS011;28341;52.064;4.920;2023-11-19T07:50:25;69.70;;;10.18;;
42702;SDS011;28341;52.064;4.920;2023-11-19T07:52:32;54.03;;;9.70;;
42702;SDS011;28341;52.064;4.920;2023-11-19T07:54:36;67.68;;;10.18;;
42702;SDS011;28341;52.064;4.920;2023-11-19T07:56:41;59.15;;;11.10;;
42702;SDS011;28341;52.064;4.920;2023-11-19T07:58:45;66.60;;;10.32;;
42702;SDS011;28341;52.064;4.920;2023-11-19T08:00:49;55.53;;;9.27;;
42702;SDS011;28341;52.064;4.920;2023-11-19T08:02:56;56.47;;;9.98;;
42702;SDS011;28341;52.064;4.920;2023-11-19T08:05:00;65.78;;;10.52;;
42702;SDS011;28341;52.064;4.920;2023-11-19T08:07:05;65.35;;;10.05;;
42702;SDS011;28341;52.064;4.920;2023-11-19T08:09:07;69.43;;;11.55;;
42702;SDS011;28341;52.064;4.920;2023-11-19T08:11:13;63.38;;;10.60;;
42702;SDS011;28341;52.064;4.920;2023-11-19T08:13:20;70.60;;;12.10;;
42702;SDS011;28341;52.064;4.920;2023-11-19T08:15:22;58.45;;;10.45;;
42702;SDS011;28341;52.064;4.920;2023-11-19T08:17:27;67.43;;;11.98;;
42702;SDS011;28341;52.064;4.920;2023-11-19T08:19:34;64.13;;;10.23;;
42702;SDS011;28341;52.064;4.920;2023-11-19T08:21:39;78.30;;;11.90;;
42702;SDS011;28341;52.064;4.920;2023-11-19T08:23:43;59.83;;;11.20;;
42702;SDS011;28341;52.064;4.920;2023-11-19T08:25:48;67.30;;;10.57;;
42702;SDS011;28341;52.064;4.920;2023-11-19T08:27:52;67.07;;;11.43;;
42702;SDS011;28341;52.064;4.920;2023-11-19T08:29:54;76.00;;;10.90;;
42702;SDS011;28341;52.064;4.920;2023-11-19T08:31:59;69.97;;;11.38;;
42702;SDS011;28341;52.064;4.920;2023-11-19T08:34:04;60.80;;;11.45;;
42702;SDS011;28341;52.064;4.920;2023-11-19T08:36:17;63.30;;;9.75;;
42702;SDS011;28341;52.064;4.920;2023-11-19T08:38:22;68.37;;;10.97;;
42702;SDS011;28341;52.064;4.920;2023-11-19T08:40:27;67.70;;;11.30;;
42702;SDS011;28341;52.064;4.920;2023-11-19T08:42:31;70.35;;;10.73;;
42702;SDS011;28341;52.064;4.920;2023-11-19T08:44:33;71.57;;;11.13;;
42702;SDS011;28341;52.064;4.920;2023-11-19T08:46:38;66.47;;;10.27;;
42702;SDS011;28341;52.064;4.920;2023-11-19T08:48:42;66.32;;;11.15;;
42702;SDS011;28341;52.064;4.920;2023-11-19T08:50:47;64.15;;;15.95;;
42702;SDS011;28341;52.064;4.920;2023-11-19T08:52:54;70.43;;;15.45;;
42702;SDS011;28341;52.064;4.920;2023-11-19T08:54:59;88.43;;;22.30;;
42702;SDS011;28341;52.064;4.920;2023-11-19T08:57:05;117.25;;;46.67;;
42702;SDS011;28341;52.064;4.920;2023-11-19T08:59:10;64.78;;;12.50;;
42702;SDS011;28341;52.064;4.920;2023-11-19T09:01:15;58.95;;;9.77;;
42702;SDS011;28341;52.064;4.920;2023-11-19T09:03:19;69.72;;;10.95;;
42702;SDS011;28341;52.064;4.920;2023-11-19T09:05:22;60.67;;;9.77;;
42702;SDS011;28341;52.064;4.920;2023-11-19T09:07:26;57.78;;;10.00;;
42702;SDS011;28341;52.064;4.920;2023-11-19T09:09:34;71.88;;;11.27;;
42702;SDS011;28341;52.064;4.920;2023-11-19T09:11:38;53.30;;;9.60;;
42702;SDS011;28341;52.064;4.920;2023-11-19T09:13:43;62.33;;;9.80;;
42702;SDS011;28341;52.064;4.920;2023-11-19T09:15:47;60.95;;;10.07;;
42702;SDS011;28341;52.064;4.920;2023-11-19T09:17:52;63.63;;;9.32;;
42702;SDS011;28341;52.064;4.920;2023-11-19T09:19:56;59.63;;;9.55;;
42702;SDS011;28341;52.064;4.920;2023-11-19T09:22:01;59.72;;;9.98;;
42702;SDS011;28341;52.064;4.920;2023-11-19T09:24:03;67.72;;;11.93;;
42702;SDS011;28341;52.064;4.920;2023-11-19T09:26:11;71.45;;;10.98;;
42702;SDS011;28341;52.064;4.920;2023-11-19T09:28:15;58.92;;;10.43;;
42702;SDS011;28341;52.064;4.920;2023-11-19T09:30:19;56.83;;;10.15;;
42702;SDS011;28341;52.064;4.920;2023-11-19T09:32:24;63.92;;;10.68;;
42702;SDS011;28341;52.064;4.920;2023-11-19T09:34:25;52.13;;;9.40;;
42702;SDS011;28341;52.064;4.920;2023-11-19T09:36:30;62.00;;;10.13;;
42702;SDS011;28341;52.064;4.920;2023-11-19T09:38:35;58.30;;;9.52;;
42702;SDS011;28341;52.064;4.920;2023-11-19T09:40:40;71.80;;;10.88;;
42702;SDS011;28341;52.064;4.920;2023-11-19T09:42:47;68.53;;;11.27;;
42702;SDS011;28341;52.064;4.920;2023-11-19T09:44:51;56.95;;;10.05;;
42702;SDS011;28341;52.064;4.920;2023-11-19T09:46:56;49.67;;;8.80;;
42702;SDS011;28341;52.064;4.920;2023-11-19T09:49:02;59.97;;;9.38;;
42702;SDS011;28341;52.064;4.920;2023-11-19T09:51:08;57.83;;;9.73;;
42702;SDS011;28341;52.064;4.920;2023-11-19T09:53:13;50.95;;;9.57;;
42702;SDS011;28341;52.064;4.920;2023-11-19T09:55:17;52.47;;;9.65;;
42702;SDS011;28341;52.064;4.920;2023-11-19T09:57:20;51.45;;;10.65;;
42702;SDS011;28341;52.064;4.920;2023-11-19T09:59:27;57.80;;;9.32;;
42702;SDS011;28341;52.064;4.920;2023-11-19T10:01:29;53.17;;;9.10;;
42702;SDS011;28341;52.064;4.920;2023-11-19T10:03:36;53.85;;;10.48;;
42702;SDS011;28341;52.064;4.920;2023-11-19T10:05:41;54.03;;;9.32;;
42702;SDS011;28341;52.064;4.920;2023-11-19T10:07:45;50.85;;;9.45;;
42702;SDS011;28341;52.064;4.920;2023-11-19T10:09:50;54.28;;;9.55;;
42702;SDS011;28341;52.064;4.920;2023-11-19T10:11:52;60.53;;;9.65;;
42702;SDS011;28341;52.064;4.920;2023-11-19T10:13:56;54.25;;;10.00;;
42702;SDS011;28341;52.064;4.920;2023-11-19T10:16:03;57.97;;;9.25;;
42702;SDS011;28341;52.064;4.920;2023-11-19T10:18:12;127.32;;;71.05;;
42702;SDS011;28341;52.064;4.920;2023-11-19T10:20:18;56.92;;;11.93;;
42702;SDS011;28341;52.064;4.920;2023-11-19T10:22:22;58.13;;;9.68;;
42702;SDS011;28341;52.064;4.920;2023-11-19T10:24:31;52.72;;;9.93;;
42702;SDS011;28341;52.064;4.920;2023-11-19T10:26:38;46.53;;;8.63;;
42702;SDS011;28341;52.064;4.920;2023-11-19T10:28:42;52.03;;;9.05;;
42702;SDS011;28341;52.064;4.920;2023-11-19T10:30:48;55.63;;;10.02;;
42702;SDS011;28341;52.064;4.920;2023-11-19T10:33:06;57.50;;;9.75;;
42702;SDS011;28341;52.064;4.920;2023-11-19T10:35:11;50.13;;;9.40;;
42702;SDS011;28341;52.064;4.920;2023-11-19T10:37:27;52.10;;;9.20;;
42702;SDS011;28341;52.064;4.920;2023-11-19T10:39:38;53.15;;;8.63;;
42702;SDS011;28341;52.064;4.920;2023-11-19T10:41:56;49.58;;;8.70;;
42702;SDS011;28341;52.064;4.920;2023-11-19T10:44:00;45.40;;;8.57;;
42702;SDS011;28341;52.064;4.920;2023-11-19T10:46:09;41.20;;;7.40;;
42702;SDS011;28341;52.064;4.920;2023-11-19T10:48:17;43.97;;;7.85;;
42702;SDS011;28341;52.064;4.920;2023-11-19T10:50:21;44.47;;;7.38;;
42702;SDS011;28341;52.064;4.920;2023-11-19T10:54:28;52.60;;;7.80;;
42702;SDS011;28341;52.064;4.920;2023-11-19T10:56:35;42.92;;;7.78;;
42702;SDS011;28341;52.064;4.920;2023-11-19T10:58:41;47.60;;;8.00;;
42702;SDS011;28341;52.064;4.920;2023-11-19T11:00:50;45.85;;;9.05;;
42702;SDS011;28341;52.064;4.920;2023-11-19T11:03:00;63.42;;;26.67;;
42702;SDS011;28341;52.064;4.920;2023-11-19T11:05:08;56.17;;;13.63;;
42702;SDS011;28341;52.064;4.920;2023-11-19T11:07:14;36.95;;;7.70;;
42702;SDS011;28341;52.064;4.920;2023-11-19T11:09:19;42.63;;;8.07;;
42702;SDS011;28341;52.064;4.920;2023-11-19T11:11:24;38.58;;;8.07;;
42702;SDS011;28341;52.064;4.920;2023-11-19T11:13:29;44.28;;;7.47;;
42702;SDS011;28341;52.064;4.920;2023-11-19T11:15:34;46.78;;;8.48;;
42702;SDS011;28341;52.064;4.920;2023-11-19T11:17:38;49.58;;;8.30;;
42702;SDS011;28341;52.064;4.920;2023-11-19T11:19:43;48.60;;;9.32;;
42702;SDS011;28341;52.064;4.920;2023-11-19T11:21:52;46.40;;;8.48;;
42702;SDS011;28341;52.064;4.920;2023-11-19T11:24:11;54.70;;;9.02;;
42702;SDS011;28341;52.064;4.920;2023-11-19T11:26:35;50.13;;;8.52;;
42702;SDS011;28341;52.064;4.920;2023-11-19T11:29:26;56.22;;;8.77;;
42702;SDS011;28341;52.064;4.920;2023-11-19T11:31:42;57.42;;;9.90;;
42702;SDS011;28341;52.064;4.920;2023-11-19T11:34:01;55.60;;;9.35;;
42702;SDS011;28341;52.064;4.920;2023-11-19T11:36:34;55.05;;;9.10;;
42702;SDS011;28341;52.064;4.920;2023-11-19T11:38:48;58.37;;;9.63;;
42702;SDS011;28341;52.064;4.920;2023-11-19T11:45:47;42.28;;;7.45;;
42702;SDS011;28341;52.064;4.920;2023-11-19T11:50:13;43.70;;;8.23;;
42702;SDS011;28341;52.064;4.920;2023-11-19T11:52:18;41.15;;;8.90;;
42702;SDS011;28341;52.064;4.920;2023-11-19T11:54:29;48.65;;;8.80;;
42702;SDS011;28341;52.064;4.920;2023-11-19T11:56:36;49.80;;;8.95;;
42702;SDS011;28341;52.064;4.920;2023-11-19T11:58:41;47.42;;;8.68;;
42702;SDS011;28341;52.064;4.920;2023-11-19T12:00:47;56.80;;;8.90;;
42702;SDS011;28341;52.064;4.920;2023-11-19T12:02:50;43.60;;;8.25;;
42702;SDS011;28341;52.064;4.920;2023-11-19T12:04:55;51.95;;;12.07;;
42702;SDS011;28341;52.064;4.920;2023-11-19T12:07:04;76.88;;;34.42;;
42702;SDS011;28341;52.064;4.920;2023-11-19T12:09:07;46.78;;;8.38;;
42702;SDS011;28341;52.064;4.920;2023-11-19T12:11:14;49.25;;;8.35;;
42702;SDS011;28341;52.064;4.920;2023-11-19T12:13:20;34.35;;;6.57;;
42702;SDS011;28341;52.064;4.920;2023-11-19T12:15:22;37.97;;;7.18;;
42702;SDS011;28341;52.064;4.920;2023-11-19T12:17:38;39.58;;;6.32;;
42702;SDS011;28341;52.064;4.920;2023-11-19T12:19:49;36.78;;;7.25;;
42702;SDS011;28341;52.064;4.920;2023-11-19T12:21:54;33.40;;;6.40;;
42702;SDS011;28341;52.064;4.920;2023-11-19T12:23:58;39.70;;;7.05;;
42702;SDS011;28341;52.064;4.920;2023-11-19T12:26:07;30.08;;;6.10;;
42702;SDS011;28341;52.064;4.920;2023-11-19T12:28:15;44.05;;;7.68;;
42702;SDS011;28341;52.064;4.920;2023-11-19T12:30:21;37.47;;;6.97;;
42702;SDS011;28341;52.064;4.920;2023-11-19T12:32:27;43.40;;;7.65;;